sensor_id;sensor_type;location;lat;lon;timestamp;P1;durP1;ratioP1;P2;durP2;ratioP2
72275;SDS011;61204;49.980;8.358;2023-11-19T00:00:27;5.20;;;2.97;;
72275;SDS011;61204;49.980;8.358;2023-11-19T00:02:53;5.03;;;3.00;;
72275;SDS011;61204;49.980;8.358;2023-11-19T00:05:19;3.33;;;2.58;;
72275;SDS011;61204;49.980;8.358;2023-11-19T00:07:44;4.40;;;3.10;;
72275;SDS011;61204;49.980;8.358;2023-11-19T00:10:10;4.30;;;3.33;;
72275;SDS011;61204;49.980;8.358;2023-11-19T00:12:39;5.35;;;3.25;;
72275;SDS011;61204;49.980;8.358;2023-11-19T00:15:09;7.22;;;4.05;;
72275;SDS011;61204;49.980;8.358;2023-11-19T00:17:37;6.47;;;3.97;;
72275;SDS011;61204;49.980;8.358;2023-11-19T00:20:05;8.40;;;4.50;;
72275;SDS011;61204;49.980;8.358;2023-11-19T00:22:32;7.45;;;4.68;;
72275;SDS011;61204;49.980;8.358;2023-11-19T00:24:58;9.07;;;5.03;;
72275;SDS011;61204;49.980;8.358;2023-11-19T00:27:24;10.27;;;6.20;;
72275;SDS011;61204;49.980;8.358;2023-11-19T00:29:51;10.07;;;7.25;;
72275;SDS011;61204;49.980;8.358;2023-11-19T00:32:16;9.75;;;6.28;;
72275;SDS011;61204;49.980;8.358;2023-11-19T00:34:45;13.13;;;6.70;;
72275;SDS011;61204;49.980;8.358;2023-11-19T00:37:12;11.32;;;7.22;;
72275;SDS011;61204;49.980;8.358;2023-11-19T00:39:42;12.32;;;7.22;;
72275;SDS011;61204;49.980;8.358;2023-11-19T00:42:09;11.75;;;7.35;;
72275;SDS011;61204;49.980;8.358;2023-11-19T00:44:35;13.13;;;7.53;;
72275;SDS011;61204;49.980;8.358;2023-11-19T00:47:03;10.75;;;7.72;;
72275;SDS011;61204;49.980;8.358;2023-11-19T00:49:30;11.60;;;7.82;;
72275;SDS011;61204;49.980;8.358;2023-11-19T00:51:57;12.23;;;7.25;;
72275;SDS011;61204;49.980;8.358;2023-11-19T00:54:24;12.35;;;7.53;;
72275;SDS011;61204;49.980;8.358;2023-11-19T00:56:51;12.05;;;7.95;;
72275;SDS011;61204;49.980;8.358;2023-11-19T00:59:18;11.75;;;7.90;;
72275;SDS011;61204;49.980;8.358;2023-11-19T01:01:44;13.90;;;7.78;;
72275;SDS011;61204;49.980;8.358;2023-11-19T01:04:10;16.42;;;8.52;;
72275;SDS011;61204;49.980;8.358;2023-11-19T01:06:36;11.05;;;8.20;;
72275;SDS011;61204;49.980;8.358;2023-11-19T01:09:01;14.25;;;8.73;;
72275;SDS011;61204;49.980;8.358;2023-11-19T01:11:27;13.30;;;8.68;;
72275;SDS011;61204;49.980;8.358;2023-11-19T01:13:53;15.70;;;10.15;;
72275;SDS011;61204;49.980;8.358;2023-11-19T01:16:19;13.75;;;9.60;;
72275;SDS011;61204;49.980;8.358;2023-11-19T01:18:49;14.25;;;8.77;;
72275;SDS011;61204;49.980;8.358;2023-11-19T01:21:15;16.15;;;10.75;;
72275;SDS011;61204;49.980;8.358;2023-11-19T01:23:44;19.70;;;10.70;;
72275;SDS011;61204;49.980;8.358;2023-11-19T01:26:10;18.58;;;11.75;;
72275;SDS011;61204;49.980;8.358;2023-11-19T01:28:40;16.38;;;10.63;;
72275;SDS011;61204;49.980;8.358;2023-11-19T01:31:08;16.88;;;10.63;;
72275;SDS011;61204;49.980;8.358;2023-11-19T01:33:33;21.38;;;12.27;;
72275;SDS011;61204;49.980;8.358;2023-11-19T01:36:01;17.55;;;10.73;;
72275;SDS011;61204;49.980;8.358;2023-11-19T01:38:29;18.98;;;11.60;;
72275;SDS011;61204;49.980;8.358;2023-11-19T01:40:56;17.27;;;11.52;;
72275;SDS011;61204;49.980;8.358;2023-11-19T01:43:35;16.35;;;10.57;;
72275;SDS011;61204;49.980;8.358;2023-11-19T01:46:04;17.35;;;9.75;;
72275;SDS011;61204;49.980;8.358;2023-11-19T01:48:32;18.85;;;10.45;;
72275;SDS011;61204;49.980;8.358;2023-11-19T01:51:05;17.77;;;10.98;;
72275;SDS011;61204;49.980;8.358;2023-11-19T01:53:32;14.20;;;9.35;;
72275;SDS011;61204;49.980;8.358;2023-11-19T01:56:03;13.02;;;9.68;;
72275;SDS011;61204;49.980;8.358;2023-11-19T01:58:34;15.73;;;9.20;;
72275;SDS011;61204;49.980;8.358;2023-11-19T02:01:01;15.50;;;9.57;;
72275;SDS011;61204;49.980;8.358;2023-11-19T02:03:31;12.52;;;8.48;;
72275;SDS011;61204;49.980;8.358;2023-11-19T02:05:58;13.23;;;8.63;;
72275;SDS011;61204;49.980;8.358;2023-11-19T02:08:27;13.52;;;9.07;;
72275;SDS011;61204;49.980;8.358;2023-11-19T02:10:54;13.02;;;8.43;;
72275;SDS011;61204;49.980;8.358;2023-11-19T02:13:24;12.68;;;8.70;;
72275;SDS011;61204;49.980;8.358;2023-11-19T02:15:51;14.07;;;9.02;;
72275;SDS011;61204;49.980;8.358;2023-11-19T02:18:21;12.18;;;8.10;;
72275;SDS011;61204;49.980;8.358;2023-11-19T02:20:53;12.43;;;8.32;;
72275;SDS011;61204;49.980;8.358;2023-11-19T02:23:21;13.77;;;8.25;;
72275;SDS011;61204;49.980;8.358;2023-11-19T02:29:00;14.40;;;7.95;;
72275;SDS011;61204;49.980;8.358;2023-11-19T02:31:26;13.93;;;7.72;;
72275;SDS011;61204;49.980;8.358;2023-11-19T02:33:52;11.50;;;7.40;;
72275;SDS011;61204;49.980;8.358;2023-11-19T02:36:18;10.38;;;6.75;;
72275;SDS011;61204;49.980;8.358;2023-11-19T02:38:43;13.85;;;7.55;;
72275;SDS011;61204;49.980;8.358;2023-11-19T02:41:09;11.38;;;6.70;;
72275;SDS011;61204;49.980;8.358;2023-11-19T02:43:35;11.65;;;6.88;;
72275;SDS011;61204;49.980;8.358;2023-11-19T02:46:04;11.13;;;6.88;;
72275;SDS011;61204;49.980;8.358;2023-11-19T02:48:34;10.35;;;6.03;;
72275;SDS011;61204;49.980;8.358;2023-11-19T02:51:01;9.95;;;5.57;;
72275;SDS011;61204;49.980;8.358;2023-11-19T02:53:34;9.95;;;5.80;;
72275;SDS011;61204;49.980;8.358;2023-11-19T02:56:00;8.90;;;5.55;;
72275;SDS011;61204;49.980;8.358;2023-11-19T02:58:37;8.23;;;5.25;;
72275;SDS011;61204;49.980;8.358;2023-11-19T03:01:04;7.88;;;5.35;;
72275;SDS011;61204;49.980;8.358;2023-11-19T03:03:38;10.55;;;5.47;;
72275;SDS011;61204;49.980;8.358;2023-11-19T03:06:05;7.70;;;4.57;;
72275;SDS011;61204;49.980;8.358;2023-11-19T03:08:36;6.50;;;4.88;;
72275;SDS011;61204;49.980;8.358;2023-11-19T03:11:02;8.23;;;4.93;;
72275;SDS011;61204;49.980;8.358;2023-11-19T03:13:29;7.32;;;4.53;;
72275;SDS011;61204;49.980;8.358;2023-11-19T03:15:55;7.68;;;5.03;;
72275;SDS011;61204;49.980;8.358;2023-11-19T03:18:23;10.90;;;4.28;;
72275;SDS011;61204;49.980;8.358;2023-11-19T03:20:49;8.65;;;4.75;;
72275;SDS011;61204;49.980;8.358;2023-11-19T03:23:14;8.98;;;4.55;;
72275;SDS011;61204;49.980;8.358;2023-11-19T03:25:40;6.57;;;4.28;;
72275;SDS011;61204;49.980;8.358;2023-11-19T03:28:06;5.28;;;4.47;;
72275;SDS011;61204;49.980;8.358;2023-11-19T03:30:31;6.82;;;4.70;;
72275;SDS011;61204;49.980;8.358;2023-11-19T03:32:58;6.55;;;4.65;;
72275;SDS011;61204;49.980;8.358;2023-11-19T03:35:27;6.22;;;4.53;;
72275;SDS011;61204;49.980;8.358;2023-11-19T03:37:53;7.35;;;4.28;;
72275;SDS011;61204;49.980;8.358;2023-11-19T03:40:19;7.45;;;4.65;;
72275;SDS011;61204;49.980;8.358;2023-11-19T03:42:45;4.88;;;3.67;;
72275;SDS011;61204;49.980;8.358;2023-11-19T03:45:11;5.60;;;4.38;;
72275;SDS011;61204;49.980;8.358;2023-11-19T03:47:37;5.53;;;4.05;;
72275;SDS011;61204;49.980;8.358;2023-11-19T03:50:04;4.95;;;3.63;;
72275;SDS011;61204;49.980;8.358;2023-11-19T03:52:32;4.80;;;3.65;;
72275;SDS011;61204;49.980;8.358;2023-11-19T03:55:00;5.90;;;3.80;;
72275;SDS011;61204;49.980;8.358;2023-11-19T03:57:26;7.10;;;3.58;;
72275;SDS011;61204;49.980;8.358;2023-11-19T03:59:53;6.32;;;3.65;;
72275;SDS011;61204;49.980;8.358;2023-11-19T04:02:19;5.40;;;3.50;;
72275;SDS011;61204;49.980;8.358;2023-11-19T04:04:45;7.75;;;2.92;;
72275;SDS011;61204;49.980;8.358;2023-11-19T04:07:10;3.88;;;2.80;;
72275;SDS011;61204;49.980;8.358;2023-11-19T04:09:36;4.38;;;3.20;;
72275;SDS011;61204;49.980;8.358;2023-11-19T04:12:02;6.00;;;2.97;;
72275;SDS011;61204;49.980;8.358;2023-11-19T04:14:29;5.50;;;2.88;;
72275;SDS011;61204;49.980;8.358;2023-11-19T04:16:54;4.03;;;2.50;;
72275;SDS011;61204;49.980;8.358;2023-11-19T04:19:20;3.22;;;2.47;;
72275;SDS011;61204;49.980;8.358;2023-11-19T04:21:47;6.38;;;2.47;;
72275;SDS011;61204;49.980;8.358;2023-11-19T04:24:12;6.03;;;2.33;;
72275;SDS011;61204;49.980;8.358;2023-11-19T04:26:42;4.15;;;2.78;;
72275;SDS011;61204;49.980;8.358;2023-11-19T04:29:13;2.97;;;2.50;;
72275;SDS011;61204;49.980;8.358;2023-11-19T04:31:44;3.60;;;2.45;;
72275;SDS011;61204;49.980;8.358;2023-11-19T04:34:11;3.20;;;2.10;;
72275;SDS011;61204;49.980;8.358;2023-11-19T04:36:37;3.72;;;2.70;;
72275;SDS011;61204;49.980;8.358;2023-11-19T04:39:04;5.18;;;2.60;;
72275;SDS011;61204;49.980;8.358;2023-11-19T04:41:34;4.05;;;2.25;;
72275;SDS011;61204;49.980;8.358;2023-11-19T04:44:01;7.55;;;2.28;;
72275;SDS011;61204;49.980;8.358;2023-11-19T04:46:30;3.13;;;1.90;;
72275;SDS011;61204;49.980;8.358;2023-11-19T04:48:55;3.55;;;1.98;;
72275;SDS011;61204;49.980;8.358;2023-11-19T04:51:21;3.13;;;1.80;;
72275;SDS011;61204;49.980;8.358;2023-11-19T04:53:47;2.38;;;1.95;;
72275;SDS011;61204;49.980;8.358;2023-11-19T04:56:15;2.42;;;1.20;;
72275;SDS011;61204;49.980;8.358;2023-11-19T04:58:41;4.20;;;1.60;;
72275;SDS011;61204;49.980;8.358;2023-11-19T05:01:12;1.98;;;1.10;;
72275;SDS011;61204;49.980;8.358;2023-11-19T05:06:09;2.97;;;1.17;;
72275;SDS011;61204;49.980;8.358;2023-11-19T05:08:35;1.70;;;1.10;;
72275;SDS011;61204;49.980;8.358;2023-11-19T05:11:01;1.80;;;1.13;;
72275;SDS011;61204;49.980;8.358;2023-11-19T05:13:27;1.77;;;1.05;;
72275;SDS011;61204;49.980;8.358;2023-11-19T05:15:52;2.95;;;0.82;;
72275;SDS011;61204;49.980;8.358;2023-11-19T05:18:18;3.70;;;1.10;;
72275;SDS011;61204;49.980;8.358;2023-11-19T05:20:44;1.52;;;1.00;;
72275;SDS011;61204;49.980;8.358;2023-11-19T05:23:11;3.45;;;1.00;;
72275;SDS011;61204;49.980;8.358;2023-11-19T05:25:36;1.60;;;1.10;;
72275;SDS011;61204;49.980;8.358;2023-11-19T05:28:02;1.85;;;1.15;;
72275;SDS011;61204;49.980;8.358;2023-11-19T05:30:27;1.50;;;1.20;;
72275;SDS011;61204;49.980;8.358;2023-11-19T05:32:53;2.53;;;1.25;;
72275;SDS011;61204;49.980;8.358;2023-11-19T05:35:18;4.38;;;1.10;;
72275;SDS011;61204;49.980;8.358;2023-11-19T05:37:47;4.85;;;1.20;;
72275;SDS011;61204;49.980;8.358;2023-11-19T05:40:14;1.85;;;1.10;;
72275;SDS011;61204;49.980;8.358;2023-11-19T05:42:40;1.92;;;1.20;;
72275;SDS011;61204;49.980;8.358;2023-11-19T05:45:07;3.10;;;1.17;;
72275;SDS011;61204;49.980;8.358;2023-11-19T05:47:36;1.70;;;1.02;;
72275;SDS011;61204;49.980;8.358;2023-11-19T05:50:02;1.80;;;1.10;;
72275;SDS011;61204;49.980;8.358;2023-11-19T05:52:29;1.80;;;1.15;;
72275;SDS011;61204;49.980;8.358;2023-11-19T05:55:01;1.70;;;1.25;;
72275;SDS011;61204;49.980;8.358;2023-11-19T05:57:34;1.88;;;1.00;;
72275;SDS011;61204;49.980;8.358;2023-11-19T06:00:01;2.47;;;1.00;;
72275;SDS011;61204;49.980;8.358;2023-11-19T06:02:27;1.65;;;1.20;;
72275;SDS011;61204;49.980;8.358;2023-11-19T06:04:53;2.75;;;1.00;;
72275;SDS011;61204;49.980;8.358;2023-11-19T06:07:19;1.75;;;1.10;;
72275;SDS011;61204;49.980;8.358;2023-11-19T06:09:45;3.00;;;1.20;;
72275;SDS011;61204;49.980;8.358;2023-11-19T06:12:10;1.85;;;1.10;;
72275;SDS011;61204;49.980;8.358;2023-11-19T06:14:36;1.65;;;1.00;;
72275;SDS011;61204;49.980;8.358;2023-11-19T06:17:01;1.42;;;1.00;;
72275;SDS011;61204;49.980;8.358;2023-11-19T06:19:29;2.15;;;1.00;;
72275;SDS011;61204;49.980;8.358;2023-11-19T06:21:55;2.67;;;1.30;;
72275;SDS011;61204;49.980;8.358;2023-11-19T06:24:21;3.38;;;1.90;;
72275;SDS011;61204;49.980;8.358;2023-11-19T06:26:46;1.92;;;1.15;;
72275;SDS011;61204;49.980;8.358;2023-11-19T06:29:12;2.40;;;1.05;;
72275;SDS011;61204;49.980;8.358;2023-11-19T06:31:43;1.17;;;0.85;;
72275;SDS011;61204;49.980;8.358;2023-11-19T06:34:09;1.60;;;0.95;;
72275;SDS011;61204;49.980;8.358;2023-11-19T06:36:35;2.15;;;0.90;;
72275;SDS011;61204;49.980;8.358;2023-11-19T06:39:01;1.75;;;1.02;;
72275;SDS011;61204;49.980;8.358;2023-11-19T06:41:27;1.60;;;1.00;;
72275;SDS011;61204;49.980;8.358;2023-11-19T06:43:54;1.98;;;1.23;;
72275;SDS011;61204;49.980;8.358;2023-11-19T06:46:20;2.28;;;1.10;;
72275;SDS011;61204;49.980;8.358;2023-11-19T06:48:47;1.55;;;1.00;;
72275;SDS011;61204;49.980;8.358;2023-11-19T06:51:13;3.83;;;1.10;;
72275;SDS011;61204;49.980;8.358;2023-11-19T06:53:39;2.97;;;1.27;;
72275;SDS011;61204;49.980;8.358;2023-11-19T06:56:06;2.25;;;1.33;;
72275;SDS011;61204;49.980;8.358;2023-11-19T06:58:47;2.72;;;1.20;;
72275;SDS011;61204;49.980;8.358;2023-11-19T07:01:14;2.58;;;1.30;;
72275;SDS011;61204;49.980;8.358;2023-11-19T07:03:43;2.00;;;1.20;;
72275;SDS011;61204;49.980;8.358;2023-11-19T07:06:11;3.08;;;1.02;;
72275;SDS011;61204;49.980;8.358;2023-11-19T07:08:38;2.10;;;1.30;;
72275;SDS011;61204;49.980;8.358;2023-11-19T07:11:06;2.03;;;1.20;;
72275;SDS011;61204;49.980;8.358;2023-11-19T07:13:34;3.25;;;1.10;;
72275;SDS011;61204;49.980;8.358;2023-11-19T07:16:00;4.07;;;1.38;;
72275;SDS011;61204;49.980;8.358;2023-11-19T07:18:26;1.52;;;1.27;;
72275;SDS011;61204;49.980;8.358;2023-11-19T07:20:51;2.78;;;1.33;;
72275;SDS011;61204;49.980;8.358;2023-11-19T07:23:17;2.90;;;1.50;;
72275;SDS011;61204;49.980;8.358;2023-11-19T07:25:43;3.88;;;1.48;;
72275;SDS011;61204;49.980;8.358;2023-11-19T07:28:12;2.70;;;1.73;;
72275;SDS011;61204;49.980;8.358;2023-11-19T07:30:41;2.67;;;1.58;;
72275;SDS011;61204;49.980;8.358;2023-11-19T07:33:07;5.05;;;1.60;;
72275;SDS011;61204;49.980;8.358;2023-11-19T07:35:33;2.83;;;1.60;;
72275;SDS011;61204;49.980;8.358;2023-11-19T07:37:59;1.77;;;1.30;;
72275;SDS011;61204;49.980;8.358;2023-11-19T07:40:24;2.45;;;1.55;;
72275;SDS011;61204;49.980;8.358;2023-11-19T07:42:50;1.88;;;1.38;;
72275;SDS011;61204;49.980;8.358;2023-11-19T07:45:16;2.97;;;1.70;;
72275;SDS011;61204;49.980;8.358;2023-11-19T07:47:42;4.30;;;2.05;;
72275;SDS011;61204;49.980;8.358;2023-11-19T07:50:16;2.67;;;1.58;;
72275;SDS011;61204;49.980;8.358;2023-11-19T07:52:44;4.30;;;2.05;;
72275;SDS011;61204;49.980;8.358;2023-11-19T07:55:09;3.35;;;2.38;;
72275;SDS011;61204;49.980;8.358;2023-11-19T07:57:35;2.95;;;2.10;;
72275;SDS011;61204;49.980;8.358;2023-11-19T08:00:01;5.75;;;3.72;;
72275;SDS011;61204;49.980;8.358;2023-11-19T08:02:28;4.22;;;2.58;;
72275;SDS011;61204;49.980;8.358;2023-11-19T08:04:54;6.25;;;2.63;;
72275;SDS011;61204;49.980;8.358;2023-11-19T08:07:20;4.60;;;3.00;;
72275;SDS011;61204;49.980;8.358;2023-11-19T08:09:49;4.53;;;3.17;;
72275;SDS011;61204;49.980;8.358;2023-11-19T08:12:15;4.20;;;2.60;;
72275;SDS011;61204;49.980;8.358;2023-11-19T08:14:42;2.60;;;1.80;;
72275;SDS011;61204;49.980;8.358;2023-11-19T08:17:09;3.28;;;1.80;;
72275;SDS011;61204;49.980;8.358;2023-11-19T08:19:35;2.75;;;1.45;;
72275;SDS011;61204;49.980;8.358;2023-11-19T08:22:00;4.75;;;1.55;;
72275;SDS011;61204;49.980;8.358;2023-11-19T08:24:27;2.58;;;1.38;;
72275;SDS011;61204;49.980;8.358;2023-11-19T08:26:53;1.33;;;1.08;;
72275;SDS011;61204;49.980;8.358;2023-11-19T08:29:19;1.50;;;1.05;;
72275;SDS011;61204;49.980;8.358;2023-11-19T08:31:44;1.77;;;1.20;;
72275;SDS011;61204;49.980;8.358;2023-11-19T08:34:11;2.78;;;1.20;;
72275;SDS011;61204;49.980;8.358;2023-11-19T08:36:37;2.33;;;1.42;;
72275;SDS011;61204;49.980;8.358;2023-11-19T08:39:02;1.52;;;1.05;;
72275;SDS011;61204;49.980;8.358;2023-11-19T08:41:28;2.00;;;1.50;;
72275;SDS011;61204;49.980;8.358;2023-11-19T08:43:54;3.45;;;1.33;;
72275;SDS011;61204;49.980;8.358;2023-11-19T08:46:19;1.52;;;0.90;;
72275;SDS011;61204;49.980;8.358;2023-11-19T08:48:45;2.25;;;0.80;;
72275;SDS011;61204;49.980;8.358;2023-11-19T08:51:11;2.25;;;1.00;;
72275;SDS011;61204;49.980;8.358;2023-11-19T08:53:37;3.58;;;1.00;;
72275;SDS011;61204;49.980;8.358;2023-11-19T08:56:03;2.08;;;1.42;;
72275;SDS011;61204;49.980;8.358;2023-11-19T08:58:30;2.45;;;1.48;;
72275;SDS011;61204;49.980;8.358;2023-11-19T09:00:56;2.08;;;1.58;;
72275;SDS011;61204;49.980;8.358;2023-11-19T09:03:22;2.50;;;1.52;;
72275;SDS011;61204;49.980;8.358;2023-11-19T09:05:54;3.03;;;1.90;;
72275;SDS011;61204;49.980;8.358;2023-11-19T09:08:20;2.53;;;1.60;;
72275;SDS011;61204;49.980;8.358;2023-11-19T09:10:46;4.53;;;1.90;;
72275;SDS011;61204;49.980;8.358;2023-11-19T09:13:11;4.57;;;1.60;;
72275;SDS011;61204;49.980;8.358;2023-11-19T09:15:37;4.70;;;2.17;;
72275;SDS011;61204;49.980;8.358;2023-11-19T09:18:03;3.97;;;2.22;;
72275;SDS011;61204;49.980;8.358;2023-11-19T09:20:29;3.90;;;1.58;;
72275;SDS011;61204;49.980;8.358;2023-11-19T09:23:02;2.88;;;1.60;;
72275;SDS011;61204;49.980;8.358;2023-11-19T09:25:28;6.22;;;1.67;;
72275;SDS011;61204;49.980;8.358;2023-11-19T09:27:54;3.90;;;1.23;;
72275;SDS011;61204;49.980;8.358;2023-11-19T09:30:20;3.13;;;1.20;;
72275;SDS011;61204;49.980;8.358;2023-11-19T09:32:45;5.20;;;1.67;;
72275;SDS011;61204;49.980;8.358;2023-11-19T09:35:11;2.53;;;1.25;;
72275;SDS011;61204;49.980;8.358;2023-11-19T09:37:38;12.35;;;1.27;;
72275;SDS011;61204;49.980;8.358;2023-11-19T09:40:04;14.55;;;2.00;;
72275;SDS011;61204;49.980;8.358;2023-11-19T09:42:36;15.63;;;2.58;;
72275;SDS011;61204;49.980;8.358;2023-11-19T09:45:15;17.45;;;2.63;;
72275;SDS011;61204;49.980;8.358;2023-11-19T09:47:46;7.13;;;1.48;;
72275;SDS011;61204;49.980;8.358;2023-11-19T09:50:16;2.05;;;0.80;;
72275;SDS011;61204;49.980;8.358;2023-11-19T09:52:47;3.10;;;0.93;;
72275;SDS011;61204;49.980;8.358;2023-11-19T09:55:13;2.45;;;0.88;;
72275;SDS011;61204;49.980;8.358;2023-11-19T09:57:40;4.40;;;1.35;;
72275;SDS011;61204;49.980;8.358;2023-11-19T10:00:09;4.35;;;1.20;;
72275;SDS011;61204;49.980;8.358;2023-11-19T10:02:37;4.53;;;1.60;;
72275;SDS011;61204;49.980;8.358;2023-11-19T10:05:06;6.18;;;1.48;;
72275;SDS011;61204;49.980;8.358;2023-11-19T10:07:33;7.93;;;1.25;;
72275;SDS011;61204;49.980;8.358;2023-11-19T10:10:00;7.07;;;1.27;;
72275;SDS011;61204;49.980;8.358;2023-11-19T10:12:30;6.15;;;1.17;;
72275;SDS011;61204;49.980;8.358;2023-11-19T10:14:56;8.23;;;1.15;;
72275;SDS011;61204;49.980;8.358;2023-11-19T10:17:33;6.13;;;0.85;;
72275;SDS011;61204;49.980;8.358;2023-11-19T10:19:59;6.43;;;1.02;;
72275;SDS011;61204;49.980;8.358;2023-11-19T10:22:27;5.65;;;1.13;;
72275;SDS011;61204;49.980;8.358;2023-11-19T10:24:54;4.20;;;1.15;;
72275;SDS011;61204;49.980;8.358;2023-11-19T10:27:19;3.15;;;1.08;;
72275;SDS011;61204;49.980;8.358;2023-11-19T10:29:45;6.75;;;1.30;;
72275;SDS011;61204;49.980;8.358;2023-11-19T10:32:12;8.65;;;1.27;;
72275;SDS011;61204;49.980;8.358;2023-11-19T10:34:42;6.35;;;1.48;;
72275;SDS011;61204;49.980;8.358;2023-11-19T10:37:08;6.30;;;1.63;;
72275;SDS011;61204;49.980;8.358;2023-11-19T10:39:53;5.57;;;1.13;;
72275;SDS011;61204;49.980;8.358;2023-11-19T10:42:20;8.15;;;0.93;;
72275;SDS011;61204;49.980;8.358;2023-11-19T10:44:46;7.35;;;1.83;;
72275;SDS011;61204;49.980;8.358;2023-11-19T10:47:13;6.15;;;1.10;;
72275;SDS011;61204;49.980;8.358;2023-11-19T10:49:42;4.38;;;0.90;;
72275;SDS011;61204;49.980;8.358;2023-11-19T10:52:08;10.77;;;1.45;;
72275;SDS011;61204;49.980;8.358;2023-11-19T10:54:34;3.97;;;1.23;;
72275;SDS011;61204;49.980;8.358;2023-11-19T10:57:01;4.63;;;1.00;;
72275;SDS011;61204;49.980;8.358;2023-11-19T10:59:31;6.38;;;1.48;;
72275;SDS011;61204;49.980;8.358;2023-11-19T11:01:57;3.20;;;0.65;;
72275;SDS011;61204;49.980;8.358;2023-11-19T11:04:28;9.05;;;1.58;;
72275;SDS011;61204;49.980;8.358;2023-11-19T11:06:59;8.50;;;1.45;;
72275;SDS011;61204;49.980;8.358;2023-11-19T11:09:27;8.77;;;1.08;;
72275;SDS011;61204;49.980;8.358;2023-11-19T11:11:56;5.60;;;1.15;;
72275;SDS011;61204;49.980;8.358;2023-11-19T11:14:25;9.05;;;1.20;;
72275;SDS011;61204;49.980;8.358;2023-11-19T11:16:53;7.50;;;1.33;;
72275;SDS011;61204;49.980;8.358;2023-11-19T11:19:21;9.07;;;1.27;;
72275;SDS011;61204;49.980;8.358;2023-11-19T11:21:51;5.22;;;0.93;;
72275;SDS011;61204;49.980;8.358;2023-11-19T11:27:34;6.65;;;1.25;;
72275;SDS011;61204;49.980;8.358;2023-11-19T11:36:23;4.13;;;1.23;;
72275;SDS011;61204;49.980;8.358;2023-11-19T11:38:50;5.25;;;1.10;;
72275;SDS011;61204;49.980;8.358;2023-11-19T11:41:23;5.30;;;1.13;;
72275;SDS011;61204;49.980;8.358;2023-11-19T11:43:54;4.60;;;1.90;;
72275;SDS011;61204;49.980;8.358;2023-11-19T11:49:04;5.45;;;1.23;;
72275;SDS011;61204;49.980;8.358;2023-11-19T11:54:10;4.93;;;0.95;;
72275;SDS011;61204;49.980;8.358;2023-11-19T11:57:03;3.95;;;0.82;;
72275;SDS011;61204;49.980;8.358;2023-11-19T11:59:37;6.40;;;1.33;;
72275;SDS011;61204;49.980;8.358;2023-11-19T12:02:15;10.53;;;1.10;;
72275;SDS011;61204;49.980;8.358;2023-11-19T12:04:47;2.60;;;0.98;;
72275;SDS011;61204;49.980;8.358;2023-11-19T12:07:18;3.55;;;0.80;;
72275;SDS011;61204;49.980;8.358;2023-11-19T12:09:51;6.20;;;0.90;;
72275;SDS011;61204;49.980;8.358;2023-11-19T12:12:36;5.28;;;0.70;;
72275;SDS011;61204;49.980;8.358;2023-11-19T12:15:07;7.35;;;0.90;;
72275;SDS011;61204;49.980;8.358;2023-11-19T12:17:43;7.47;;;0.90;;
72275;SDS011;61204;49.980;8.358;2023-11-19T12:20:14;4.45;;;0.82;;
72275;SDS011;61204;49.980;8.358;2023-11-19T12:22:43;3.08;;;0.93;;
72275;SDS011;61204;49.980;8.358;2023-11-19T12:25:12;6.10;;;0.98;;
72275;SDS011;61204;49.980;8.358;2023-11-19T12:27:42;2.75;;;0.98;;
72275;SDS011;61204;49.980;8.358;2023-11-19T12:30:22;10.75;;;1.58;;
72275;SDS011;61204;49.980;8.358;2023-11-19T12:32:50;8.00;;;1.58;;
72275;SDS011;61204;49.980;8.358;2023-11-19T12:35:21;3.30;;;0.95;;
72275;SDS011;61204;49.980;8.358;2023-11-19T12:37:49;4.50;;;1.08;;
72275;SDS011;61204;49.980;8.358;2023-11-19T12:42:51;4.30;;;1.02;;
72275;SDS011;61204;49.980;8.358;2023-11-19T12:45:20;7.15;;;0.90;;
72275;SDS011;61204;49.980;8.358;2023-11-19T12:47:48;2.72;;;0.95;;
72275;SDS011;61204;49.980;8.358;2023-11-19T12:50:15;6.88;;;1.15;;
72275;SDS011;61204;49.980;8.358;2023-11-19T12:52:59;5.00;;;0.95;;
72275;SDS011;61204;49.980;8.358;2023-11-19T12:55:25;5.43;;;1.60;;
72275;SDS011;61204;49.980;8.358;2023-11-19T12:57:55;5.57;;;1.10;;
72275;SDS011;61204;49.980;8.358;2023-11-19T13:00:23;4.72;;;1.20;;
72275;SDS011;61204;49.980;8.358;2023-11-19T13:02:55;6.97;;;1.20;;
72275;SDS011;61204;49.980;8.358;2023-11-19T13:05:26;7.78;;;1.02;;
72275;SDS011;61204;49.980;8.358;2023-11-19T13:13:13;5.07;;;0.95;;
72275;SDS011;61204;49.980;8.358;2023-11-19T13:15:38;6.85;;;1.27;;
72275;SDS011;61204;49.980;8.358;2023-11-19T13:18:05;4.20;;;0.70;;
72275;SDS011;61204;49.980;8.358;2023-11-19T13:20:32;8.32;;;1.02;;
72275;SDS011;61204;49.980;8.358;2023-11-19T13:23:01;2.97;;;1.35;;
72275;SDS011;61204;49.980;8.358;2023-11-19T13:25:30;4.25;;;1.38;;
72275;SDS011;61204;49.980;8.358;2023-11-19T13:27:57;5.32;;;1.13;;
72275;SDS011;61204;49.980;8.358;2023-11-19T13:30:24;5.38;;;0.68;;
72275;SDS011;61204;49.980;8.358;2023-11-19T13:32:51;4.57;;;1.10;;
72275;SDS011;61204;49.980;8.358;2023-11-19T13:35:20;5.55;;;0.88;;
72275;SDS011;61204;49.980;8.358;2023-11-19T13:37:47;8.35;;;1.83;;
72275;SDS011;61204;49.980;8.358;2023-11-19T13:40:13;4.68;;;0.80;;
72275;SDS011;61204;49.980;8.358;2023-11-19T13:42:43;4.32;;;1.05;;
72275;SDS011;61204;49.980;8.358;2023-11-19T13:45:10;3.80;;;0.75;;
72275;SDS011;61204;49.980;8.358;2023-11-19T13:47:41;11.70;;;1.10;;
72275;SDS011;61204;49.980;8.358;2023-11-19T13:50:14;8.07;;;1.23;;
72275;SDS011;61204;49.980;8.358;2023-11-19T13:52:43;4.55;;;0.77;;
72275;SDS011;61204;49.980;8.358;2023-11-19T13:55:11;5.45;;;0.98;;
72275;SDS011;61204;49.980;8.358;2023-11-19T13:57:38;8.40;;;1.50;;
72275;SDS011;61204;49.980;8.358;2023-11-19T14:00:07;9.40;;;1.05;;
72275;SDS011;61204;49.980;8.358;2023-11-19T14:02:47;7.28;;;1.23;;
72275;SDS011;61204;49.980;8.358;2023-11-19T14:05:17;7.57;;;1.40;;
72275;SDS011;61204;49.980;8.358;2023-11-19T14:07:43;6.28;;;1.30;;
72275;SDS011;61204;49.980;8.358;2023-11-19T14:10:09;7.65;;;1.75;;
72275;SDS011;61204;49.980;8.358;2023-11-19T14:12:39;7.40;;;1.17;;
72275;SDS011;61204;49.980;8.358;2023-11-19T14:15:06;5.45;;;1.10;;
72275;SDS011;61204;49.980;8.358;2023-11-19T14:17:35;5.93;;;1.17;;
72275;SDS011;61204;49.980;8.358;2023-11-19T14:20:03;8.20;;;1.60;;
72275;SDS011;61204;49.980;8.358;2023-11-19T14:22:44;8.85;;;1.10;;
72275;SDS011;61204;49.980;8.358;2023-11-19T14:25:15;4.13;;;0.90;;
72275;SDS011;61204;49.980;8.358;2023-11-19T14:27:41;4.22;;;1.13;;
72275;SDS011;61204;49.980;8.358;2023-11-19T14:30:10;3.78;;;0.80;;
72275;SDS011;61204;49.980;8.358;2023-11-19T14:32:41;5.95;;;1.00;;
72275;SDS011;61204;49.980;8.358;2023-11-19T14:35:12;8.77;;;1.80;;
72275;SDS011;61204;49.980;8.358;2023-11-19T14:37:38;6.28;;;1.02;;
72275;SDS011;61204;49.980;8.358;2023-11-19T14:40:04;6.68;;;1.85;;
72275;SDS011;61204;49.980;8.358;2023-11-19T14:42:32;8.48;;;1.13;;
72275;SDS011;61204;49.980;8.358;2023-11-19T14:44:58;4.97;;;1.00;;
72275;SDS011;61204;49.980;8.358;2023-11-19T14:47:24;4.60;;;0.88;;
72275;SDS011;61204;49.980;8.358;2023-11-19T14:49:50;3.33;;;1.10;;
72275;SDS011;61204;49.980;8.358;2023-11-19T14:52:16;8.52;;;1.13;;
72275;SDS011;61204;49.980;8.358;2023-11-19T14:54:44;4.25;;;1.00;;
72275;SDS011;61204;49.980;8.358;2023-11-19T14:57:09;3.65;;;1.17;;
72275;SDS011;61204;49.980;8.358;2023-11-19T14:59:35;6.05;;;1.73;;
72275;SDS011;61204;49.980;8.358;2023-11-19T15:02:02;8.05;;;1.45;;
72275;SDS011;61204;49.980;8.358;2023-11-19T15:04:29;4.53;;;1.27;;
72275;SDS011;61204;49.980;8.358;2023-11-19T15:06:58;8.38;;;1.20;;
72275;SDS011;61204;49.980;8.358;2023-11-19T15:09:24;6.90;;;1.10;;
72275;SDS011;61204;49.980;8.358;2023-11-19T15:11:53;3.38;;;1.08;;
72275;SDS011;61204;49.980;8.358;2023-11-19T15:14:19;3.45;;;0.60;;
72275;SDS011;61204;49.980;8.358;2023-11-19T15:16:45;4.97;;;1.00;;